Dayton, Ohio
Current Conditions -  °F | °C
As of 11:58 PM on Monday 22 Dec 2014 (Local Time) from KFFO Reporting Station
Overcast Overcast  
Wind Chill:   Ceiling: 4800
Heat Index:   Visibility: 10mi
Dew Point:   Wind: 3mph
Humidity: 74%   Direction: 60°ENE
Pressure: 29.75"   Gusts: NA
Location:  39.76°N, 84.19°W
Report Text: KFFO 230458Z AUTO 06003KT 10SM OVC048 08/04 A2975 RMK AO2 SLP081 T00790036 400861047
Loading
Personal Weather Stations






























Interactive Weather Map New forecast layout! Learn more

10-Day Weather Forecast

Advertisements
Track Severe Weather on mobile